Edwards Creek Valley, Nevada Weather observations

Data are for observation ending at time listed.
 Day   Time    Ave.   Ave.  Ave.  Vector   Max.   Stn.    Total    Solar   Ave.  
  of    of     Air    Rel.  Wind   Wind    Wind   Baro.  Precip.   Rad.    Soil  
Year   Day     Temp.  Hum.  Speed  Dir.    Gust   Pres.                    Temp. 
2014   (PST)    F      %     mph   deg.    mph     mb.     in.     W/m2     F   
------------------------------------------------------------------------------
 326   15:30   51.7    43   15.9   269     24.8    841     0.00      41     47.4
 326   15:40   50.9    47   17.3   272     31.1    842     0.00      24     47.3
 326   15:50   49.7    52   15.6   283     26.5    842     0.00      15     47.1
 326   16:00   47.1    64   20.2   297     30.5    842     0.00      62     47.0
 326   16:10   45.0    70   19.7   305     26.5    843     0.00      73     46.8
 326   16:20   43.9    73   15.3   290     29.4    843     0.00      15     46.6
 326   16:30   43.4    73   11.4   277     18.2    843     0.00       5     46.4
 326   16:40   43.8    70   11.1   284     17.1    843     0.00       2     46.1
 326   16:50   43.9    67   10.5   295     19.4    844     0.00       1     45.7
 326   17:00   43.6    69    8.8   310     12.4    844     0.00       0     45.5
 326   17:10   43.0    69    8.6   325     15.9    845     0.00       0     45.2
 326   17:20   43.0    64    9.0   309     16.1    845     0.00       0     45.1
 326   17:30   43.0    61    8.6   304     13.2    845     0.00       0     44.9
 326   17:40   43.2    59   10.8   308     15.7    845     0.00       0     44.7
 326   17:50   42.6    59   12.6   293     25.6    845     0.00       0     44.5
 326   18:00   42.8    54   12.0   307     19.2    845     0.00       0     44.3
 326   18:10   42.3    55   11.7   303     16.1    845     0.00       0     44.1
 326   18:20   42.2    56   12.0   282     19.6    845     0.00       0     43.9
 326   18:30   41.1    60    9.2   276     19.5    845     0.00       0     43.7
 326   18:40   40.9    61    4.7   296      8.0    846     0.00       0     43.5
 326   18:50   41.3    56    9.5   319     17.3    846     0.00       0     43.4
 326   19:00   40.8    56    9.1   286     14.8    846     0.00       0     43.2
 326   19:10   41.0    51   15.7   291     26.2    846     0.00       0     43.1
 326   19:20   40.6    52   11.7   290     19.6    846     0.00       0     42.8
 326   19:30   40.1    54   11.2   285     17.0    847     0.00       0     42.5
 326   19:40   39.9    56   10.6   287     19.5    847     0.00       0     42.3
 326   19:50   40.0    55    9.0   292     15.9    847     0.00       0     42.1
 326   20:00   39.6    56    7.9   316     13.0    847     0.00       0     42.0
 326   20:10   38.8    58    7.6   309     13.6    848     0.00       0     41.9
 326   20:20   39.0    55    7.8   316     14.3    848     0.00       0     41.7
 326   20:30   38.4    58    6.3   290     11.5    848     0.00       0     41.6
 326   20:40   38.7    55    9.4   320     18.2    848     0.00       0     41.4
 326   20:50   38.4    58    7.2   311     11.2    847     0.00       0     41.2
 326   21:00   38.0    60    6.9   317     11.6    847     0.00       0     41.1
 326   21:10   37.7    60    5.4   305      9.7    847     0.00       0     40.9
 326   21:20   37.6    60    3.3   290      6.3    847     0.00       0     40.8
 326   21:30   37.4    60    3.7   317      8.7    847     0.00       0     40.6
 326   21:40   37.0    61    6.5   339     11.4    848     0.00       0     40.5
 326   21:50   36.2    65    6.1   348     11.8    848     0.00       0     40.4
 326   22:00   36.6    62    9.2   338     14.7    848     0.00       0     40.3
 326   22:10   36.8    60   10.0   318     14.1    848     0.00       0     40.2
 326   22:20   36.2    60    7.8   319     12.8    848     0.00       0     40.1
 326   22:30   35.9    59    7.7   298     13.0    848     0.00       0     39.9
 326   22:40   36.1    55   10.3   298     19.1    848     0.00       0     39.7
 326   22:50   36.0    54   12.9   296     19.6    847     0.00       0     39.5
 326   23:00   35.9    54   11.1   298     19.6    847     0.00       0     39.3
 326   23:10   34.7    58    7.2    52     13.4    847     0.00       0     39.1
 326   23:20   35.8    53    5.1   111     15.7    847     0.00       0     38.9
 326   23:30   35.6    54    6.9   140     11.3    848     0.00       0     38.7
 326   23:40   34.6    58    2.5   230      5.1    848     0.00       0     38.5
 326   23:50   32.2    63    1.3   240      3.3    849     0.00       0     38.4
 327    0:00   32.2    62    1.4    98      3.0    850     0.00       0     38.2
 327    0:10   33.1    60    3.0   117      3.9    849     0.00       0     38.0
 327    0:20   33.0    59    2.7   173      3.8    850     0.00       0     37.8
 327    0:30   33.5    57    2.1   231      3.9    850     0.00       0     37.6
 327    0:40   33.5    56    1.5   226      2.8    850     0.00       0     37.5
 327    0:50   33.6    56    2.3   212      4.2    850     0.00       0     37.3
 327    1:00   33.7    56    3.2   208      6.4    851     0.00       0     37.1
 327    1:10   34.4    54    2.6   251      5.6    851     0.00       0     37.0
 327    1:20   34.3    55    4.3   155      7.0    851     0.00       0     36.9
 327    1:30   33.8    56    2.1   215      5.5    851     0.00       0     36.7
 327    1:40   33.7    56    3.2   207      5.0    851     0.00       0     36.6
 327    1:50   33.1    58    2.4   200      4.2    851     0.00       0     36.5
 327    2:00   32.8    58    2.5   189      4.9    851     0.00       0     36.4
 327    2:10   33.6    57    3.6   185      7.6    851     0.00       0     36.4
 327    2:20   34.3    56    4.2   155      7.6    851     0.00       0     36.3
 327    2:30   34.3    55    2.8   170      5.4    851     0.00       0     36.3
 327    2:40   33.9    56    4.1   228      8.6    851     0.00       0     36.3
 327    2:50   33.4    57    3.2   239      6.1    851     0.00       0     36.2
 327    3:00   33.2    57    5.1   265      8.0    851     0.00       0     36.1
 327    3:10   32.4    59    5.1   288      7.5    851     0.00       0     36.0
 327    3:20   32.0    59    4.2   286      6.1    852     0.00       0     35.8
 327    3:30   30.8    62    5.4   283      7.2    851     0.00       0     35.7
 327    3:40   30.6    61    5.6   283      7.7    852     0.00       0     35.5
 327    3:50   32.4    57    5.6   288      6.9    852     0.00       0     35.3
 327    4:00   32.0    58    5.5   308      7.4    852     0.00       0     35.2
 327    4:10   31.3    59    4.0   298      6.4    852     0.00       0     35.1
 327    4:20   32.1    56    5.9   304     10.0    852     0.00       0     34.9
 327    4:30   28.6    65    5.3   265      7.7    852     0.00       0     34.8
 327    4:40   28.1    67    3.3   188      6.0    852     0.00       0     34.7
 327    4:50   26.7    70    4.4   172      5.8    851     0.00       0     34.5
 327    5:00   24.6    74    4.3   155      5.9    852     0.00       0     34.4
 327    5:10   23.5    77    4.4   155      5.8    852     0.00       0     34.3
 327    5:20   22.8    78    3.5   160      4.8    851     0.00       0     34.1
 327    5:30   22.7    81    4.0   165      5.6    850     0.00       0     34.0
 327    5:40   23.4    80    4.5   152      6.1    851     0.00       0     33.9
 327    5:50   23.2    78    3.0   168      5.2    851     0.00       0     33.8
 327    6:00   21.7    81    3.9   180      5.4    851     0.00       0     33.6
 327    6:10   21.1    83    4.3   182      6.1    852     0.00       0     33.5
 327    6:20   21.0    83    3.7   198      5.7    852     0.00       0     33.4
 327    6:30   20.4    84    1.6   203      3.5    852     0.00       0     33.3
 327    6:40   21.8    81    2.2   217      3.8    852     0.00       2     33.2
 327    6:50   21.5    80    2.7   217      5.0    852     0.00       5     33.1
 327    7:00   20.9    82    3.3   214      5.8    852     0.00       9     33.0
 327    7:10   21.2    81    3.0   191      5.7    852     0.00      13     32.9
 327    7:20   21.3    82    2.7   185      4.2    852     0.00      52     32.8
 327    7:30   23.7    79    3.4    84      8.4    852     0.00      83     32.7
 327    7:40   26.4    74    1.4   144      3.7    853     0.00     116     32.6
 327    7:50   29.9    67    1.1   183      2.9    853     0.00     147     32.5
 327    8:00   32.7    61    1.4   158      3.4    853     0.00     173     32.5
 327    8:10   34.1    58    1.0   104      2.0    853     0.00     198     32.6
 327    8:20   33.1    60    1.6    28      3.4    853     0.00     225     32.7
 327    8:30   33.3    59    0.7   317      2.0    853     0.00     269     32.8
 327    8:40   32.7    62    4.5   326      8.6    853     0.00     260     32.8
 327    8:50   30.9    67    5.0   307      6.6    853     0.00     296     33.0
 327    9:00   31.1    66    3.3   326      4.2    853     0.00     290     33.2
 327    9:10   31.9    64    3.1   322      4.9    854     0.00     259     33.4
 327    9:20   32.8    63    3.0   318      5.3    854     0.00     342     33.8
 327    9:30   34.3    60    2.2   299      4.7    854     0.00     395     34.1
 327    9:40   36.1    55    3.4   254      6.1    854     0.00     407     34.4
 327    9:50   37.1    51    3.1   221      6.4    854     0.00     386     34.8
 327   10:00   37.9    49    3.7   163      7.3    854     0.00     358     35.3
 327   10:10   38.5    47    3.3   155      6.9    854     0.00     381     35.7
 327   10:20   38.3    47    3.5    96      7.3    854     0.00     412     36.1
 327   10:30   38.0    49    3.5    64      6.9    854     0.00     427     36.6
 327   10:40   38.0    48    2.7    10      6.6    854     0.00     391     36.9
 327   10:50   38.4    47    2.9     7      5.4    853     0.00     342     37.3
 327   11:00   38.2    49    3.3    67      5.1    853     0.00     300     37.7
 327   11:10   38.3    47    2.2   132      6.0    853     0.00     276     38.1
 327   11:20   38.8    46    1.7   138      3.1    853     0.00     340     38.4
 327   11:30   40.1    44    1.8   205      4.7    853     0.00     468     38.7
 327   11:40   40.4    44    2.1   260      6.3    853     0.00     435     39.0
 327   11:50   40.1    45    3.5   240      8.5    853     0.00     270     39.3
 327   12:00   40.1    47    4.6   216      7.5    853     0.00     302     39.6
 327   12:10   40.8    46    4.4   196      7.1    852     0.00     366     39.9
 327   12:20   41.2    44    6.1   186     10.7    852     0.00     412     40.1
 327   12:30   41.6    38    6.7   184     11.1    852     0.00     315     40.5
 327   12:40   41.7    38    6.3   193     10.8    852     0.00     354     40.8
 327   12:50   41.9    36    6.3   194     13.1    852     0.00     311     41.1
 327   13:00   41.7    37    6.0   193     11.0    851     0.00     248     41.3
 327   13:10   41.9    35    5.2   216      9.7    851     0.00     279     41.4
 327   13:20   42.9    34    5.5   219      9.3    851     0.00     373     41.6
 327   13:30   43.3    35    3.7   219      7.7    851     0.00     417     41.7
 327   13:40   44.0    35    4.1   191     12.6    851     0.00     403     42.0
 327   13:50   44.0    35    3.7   175      8.3    851     0.00     370     42.4
 327   14:00   44.4    35    3.8   199      6.9    850     0.00     326     42.7
 327   14:10   43.9    34    4.3   213      8.9    851     0.00     345     43.0
 327   14:20   44.5    32    3.8   184      8.4    851     0.00     303     43.2
 327   14:30   44.3    31    4.2   215      9.3    851     0.00     272     43.3
 327   14:40   43.9    31    4.7   206      8.4    851     0.00     195     43.4
 327   14:50   43.3    32    4.5   221      8.8    851     0.00     144     43.4
 327   15:00   43.3    31    4.8   223      8.0    850     0.00     148     43.2
 327   15:10   43.0    31    4.8   225      8.4    850     0.00     133     43.0
 327   15:20   42.7    33    4.3   223      7.6    850     0.00      93     42.8

Return to Carson Sink graphs page.


Western Regional Climate Center,wrcc@dri.edu